sensor_id;sensor_type;location;lat;lon;timestamp;temperature;humidity
38265;DHT22;24062;47.480;8.768;2022-11-20T00:02:05;5.00;64.50
38265;DHT22;24062;47.480;8.768;2022-11-20T00:06:14;5.00;64.80
38265;DHT22;24062;47.480;8.768;2022-11-20T00:10:30;5.20;65.20
38265;DHT22;24062;47.480;8.768;2022-11-20T00:14:32;5.30;65.60
38265;DHT22;24062;47.480;8.768;2022-11-20T00:18:34;5.50;66.00
38265;DHT22;24062;47.480;8.768;2022-11-20T00:22:43;5.70;66.00
38265;DHT22;24062;47.480;8.768;2022-11-20T00:26:58;5.90;66.10
38265;DHT22;24062;47.480;8.768;2022-11-20T00:31:02;6.00;66.20
38265;DHT22;24062;47.480;8.768;2022-11-20T00:35:03;6.20;66.50
38265;DHT22;24062;47.480;8.768;2022-11-20T00:39:13;6.40;66.50
38265;DHT22;24062;47.480;8.768;2022-11-20T00:43:28;6.50;66.60
38265;DHT22;24062;47.480;8.768;2022-11-20T00:47:28;6.60;66.80
38265;DHT22;24062;47.480;8.768;2022-11-20T00:51:29;6.70;66.90
38265;DHT22;24062;47.480;8.768;2022-11-20T00:55:41;6.80;67.00
38265;DHT22;24062;47.480;8.768;2022-11-20T00:59:56;6.90;67.10
38265;DHT22;24062;47.480;8.768;2022-11-20T01:03:57;7.00;67.20
38265;DHT22;24062;47.480;8.768;2022-11-20T01:07:58;7.00;67.20
38265;DHT22;24062;47.480;8.768;2022-11-20T01:12:07;7.00;66.90
38265;DHT22;24062;47.480;8.768;2022-11-20T01:16:23;6.90;67.00
38265;DHT22;24062;47.480;8.768;2022-11-20T01:20:23;6.80;67.00
38265;DHT22;24062;47.480;8.768;2022-11-20T01:24:23;6.90;67.40
38265;DHT22;24062;47.480;8.768;2022-11-20T01:28:33;6.90;67.50
38265;DHT22;24062;47.480;8.768;2022-11-20T01:32:48;6.90;67.50
38265;DHT22;24062;47.480;8.768;2022-11-20T01:36:50;6.90;67.50
38265;DHT22;24062;47.480;8.768;2022-11-20T01:40:55;6.90;67.80
38265;DHT22;24062;47.480;8.768;2022-11-20T01:49:36;7.10;68.40
38265;DHT22;24062;47.480;8.768;2022-11-20T01:53:37;7.30;68.30
38265;DHT22;24062;47.480;8.768;2022-11-20T01:57:37;7.30;68.30
38265;DHT22;24062;47.480;8.768;2022-11-20T02:01:46;7.40;68.50
38265;DHT22;24062;47.480;8.768;2022-11-20T02:06:03;7.40;68.50
38265;DHT22;24062;47.480;8.768;2022-11-20T02:10:04;7.40;68.60
38265;DHT22;24062;47.480;8.768;2022-11-20T02:14:05;7.50;68.90
38265;DHT22;24062;47.480;8.768;2022-11-20T02:18:16;7.60;68.90
38265;DHT22;24062;47.480;8.768;2022-11-20T02:22:35;7.60;69.00
38265;DHT22;24062;47.480;8.768;2022-11-20T02:26:40;7.60;69.10
38265;DHT22;24062;47.480;8.768;2022-11-20T02:30:41;7.60;69.10
38265;DHT22;24062;47.480;8.768;2022-11-20T02:34:48;7.70;69.20
38265;DHT22;24062;47.480;8.768;2022-11-20T02:39:04;7.70;69.30
38265;DHT22;24062;47.480;8.768;2022-11-20T02:43:06;7.70;69.40
38265;DHT22;24062;47.480;8.768;2022-11-20T02:47:06;7.90;69.50
38265;DHT22;24062;47.480;8.768;2022-11-20T02:51:14;7.80;69.50
38265;DHT22;24062;47.480;8.768;2022-11-20T02:55:29;7.80;69.40
38265;DHT22;24062;47.480;8.768;2022-11-20T02:59:33;7.90;69.60
38265;DHT22;24062;47.480;8.768;2022-11-20T03:03:35;7.90;69.60
38265;DHT22;24062;47.480;8.768;2022-11-20T03:07:43;7.90;69.60
38265;DHT22;24062;47.480;8.768;2022-11-20T03:11:58;7.90;69.70
38265;DHT22;24062;47.480;8.768;2022-11-20T03:16:05;7.90;69.70
38265;DHT22;24062;47.480;8.768;2022-11-20T03:20:06;7.90;69.70
38265;DHT22;24062;47.480;8.768;2022-11-20T03:24:15;7.90;69.70
38265;DHT22;24062;47.480;8.768;2022-11-20T03:28:30;7.90;69.70
38265;DHT22;24062;47.480;8.768;2022-11-20T03:32:32;7.90;69.90
38265;DHT22;24062;47.480;8.768;2022-11-20T03:36:32;7.90;69.80
38265;DHT22;24062;47.480;8.768;2022-11-20T03:40:43;7.90;69.90
38265;DHT22;24062;47.480;8.768;2022-11-20T03:44:58;7.90;69.80
38265;DHT22;24062;47.480;8.768;2022-11-20T03:49:00;7.90;69.80
38265;DHT22;24062;47.480;8.768;2022-11-20T03:53:01;8.00;69.90
38265;DHT22;24062;47.480;8.768;2022-11-20T03:57:08;8.00;69.90
38265;DHT22;24062;47.480;8.768;2022-11-20T04:01:24;8.00;69.90
38265;DHT22;24062;47.480;8.768;2022-11-20T04:05:26;8.10;69.90
38265;DHT22;24062;47.480;8.768;2022-11-20T04:09:27;8.10;69.80
38265;DHT22;24062;47.480;8.768;2022-11-20T04:13:34;8.10;69.80
38265;DHT22;24062;47.480;8.768;2022-11-20T04:17:50;8.10;69.80
38265;DHT22;24062;47.480;8.768;2022-11-20T04:21:53;8.00;69.60
38265;DHT22;24062;47.480;8.768;2022-11-20T04:25:55;8.00;69.80
38265;DHT22;24062;47.480;8.768;2022-11-20T04:30:08;7.90;69.60
38265;DHT22;24062;47.480;8.768;2022-11-20T04:34:23;7.90;69.60
38265;DHT22;24062;47.480;8.768;2022-11-20T04:38:25;7.80;69.50
38265;DHT22;24062;47.480;8.768;2022-11-20T04:42:25;7.90;69.60
38265;DHT22;24062;47.480;8.768;2022-11-20T04:46:37;7.90;69.90
38265;DHT22;24062;47.480;8.768;2022-11-20T04:50:52;8.00;70.10
38265;DHT22;24062;47.480;8.768;2022-11-20T04:54:54;7.90;69.20
38265;DHT22;24062;47.480;8.768;2022-11-20T04:58:55;7.70;68.60
38265;DHT22;24062;47.480;8.768;2022-11-20T05:03:06;7.40;68.30
38265;DHT22;24062;47.480;8.768;2022-11-20T05:07:21;7.20;68.20
38265;DHT22;24062;47.480;8.768;2022-11-20T05:11:23;6.90;68.10
38265;DHT22;24062;47.480;8.768;2022-11-20T05:15:23;6.80;68.30
38265;DHT22;24062;47.480;8.768;2022-11-20T05:19:31;6.60;68.30
38265;DHT22;24062;47.480;8.768;2022-11-20T05:23:46;6.50;68.20
38265;DHT22;24062;47.480;8.768;2022-11-20T05:27:48;6.40;68.30
38265;DHT22;24062;47.480;8.768;2022-11-20T05:31:48;6.30;67.80
38265;DHT22;24062;47.480;8.768;2022-11-20T05:35:57;6.10;67.80
38265;DHT22;24062;47.480;8.768;2022-11-20T05:40:13;6.00;68.30
38265;DHT22;24062;47.480;8.768;2022-11-20T05:44:16;6.20;69.20
38265;DHT22;24062;47.480;8.768;2022-11-20T05:48:18;6.30;68.70
38265;DHT22;24062;47.480;8.768;2022-11-20T05:52:27;6.40;69.20
38265;DHT22;24062;47.480;8.768;2022-11-20T05:56:43;6.50;69.20
38265;DHT22;24062;47.480;8.768;2022-11-20T06:00:44;6.60;69.10
38265;DHT22;24062;47.480;8.768;2022-11-20T06:04:45;6.70;69.40
38265;DHT22;24062;47.480;8.768;2022-11-20T06:08:52;6.90;69.60
38265;DHT22;24062;47.480;8.768;2022-11-20T06:13:08;7.00;69.90
38265;DHT22;24062;47.480;8.768;2022-11-20T06:17:09;7.20;70.10
38265;DHT22;24062;47.480;8.768;2022-11-20T06:21:10;7.40;70.20
38265;DHT22;24062;47.480;8.768;2022-11-20T06:25:21;7.50;70.20
38265;DHT22;24062;47.480;8.768;2022-11-20T06:29:36;7.60;70.10
38265;DHT22;24062;47.480;8.768;2022-11-20T06:33:38;7.60;70.00
38265;DHT22;24062;47.480;8.768;2022-11-20T06:37:38;7.60;70.00
38265;DHT22;24062;47.480;8.768;2022-11-20T06:41:46;7.70;70.20
38265;DHT22;24062;47.480;8.768;2022-11-20T06:46:02;7.90;70.30
38265;DHT22;24062;47.480;8.768;2022-11-20T06:50:04;7.80;70.00
38265;DHT22;24062;47.480;8.768;2022-11-20T06:54:04;7.80;70.20
38265;DHT22;24062;47.480;8.768;2022-11-20T06:58:12;7.90;70.60
38265;DHT22;24062;47.480;8.768;2022-11-20T07:02:28;8.00;70.70
38265;DHT22;24062;47.480;8.768;2022-11-20T07:06:31;7.90;70.50
38265;DHT22;24062;47.480;8.768;2022-11-20T07:10:33;8.00;70.70
38265;DHT22;24062;47.480;8.768;2022-11-20T07:14:41;8.00;70.60
38265;DHT22;24062;47.480;8.768;2022-11-20T07:18:56;8.00;70.80
38265;DHT22;24062;47.480;8.768;2022-11-20T07:22:58;8.10;70.90
38265;DHT22;24062;47.480;8.768;2022-11-20T07:26:58;8.10;70.70
38265;DHT22;24062;47.480;8.768;2022-11-20T07:31:06;8.20;70.90
38265;DHT22;24062;47.480;8.768;2022-11-20T07:35:21;8.20;70.80
38265;DHT22;24062;47.480;8.768;2022-11-20T07:39:23;8.30;70.90
38265;DHT22;24062;47.480;8.768;2022-11-20T07:43:23;8.40;71.30
38265;DHT22;24062;47.480;8.768;2022-11-20T07:47:35;8.60;71.50
38265;DHT22;24062;47.480;8.768;2022-11-20T07:51:50;8.70;71.10
38265;DHT22;24062;47.480;8.768;2022-11-20T07:55:53;8.80;71.20
38265;DHT22;24062;47.480;8.768;2022-11-20T07:59:53;9.10;72.00
38265;DHT22;24062;47.480;8.768;2022-11-20T08:04:01;9.40;72.00
38265;DHT22;24062;47.480;8.768;2022-11-20T08:08:17;9.40;71.90
38265;DHT22;24062;47.480;8.768;2022-11-20T08:12:19;9.50;71.70
38265;DHT22;24062;47.480;8.768;2022-11-20T08:16:37;9.80;72.40
38265;DHT22;24062;47.480;8.768;2022-11-20T08:20:44;9.80;71.60
38265;DHT22;24062;47.480;8.768;2022-11-20T08:25:00;9.70;71.20
38265;DHT22;24062;47.480;8.768;2022-11-20T08:29:03;9.70;71.30
38265;DHT22;24062;47.480;8.768;2022-11-20T08:33:06;9.70;71.30
38265;DHT22;24062;47.480;8.768;2022-11-20T08:37:14;9.80;71.40
38265;DHT22;24062;47.480;8.768;2022-11-20T08:41:29;9.70;70.70
38265;DHT22;24062;47.480;8.768;2022-11-20T08:45:33;9.70;70.60
38265;DHT22;24062;47.480;8.768;2022-11-20T08:49:33;9.30;69.20
38265;DHT22;24062;47.480;8.768;2022-11-20T08:53:41;9.00;69.10
38265;DHT22;24062;47.480;8.768;2022-11-20T08:57:56;8.80;69.40
38265;DHT22;24062;47.480;8.768;2022-11-20T09:01:58;8.80;69.60
38265;DHT22;24062;47.480;8.768;2022-11-20T09:05:58;9.00;70.40
38265;DHT22;24062;47.480;8.768;2022-11-20T09:10:10;9.50;70.80
38265;DHT22;24062;47.480;8.768;2022-11-20T09:14:26;9.70;70.80
38265;DHT22;24062;47.480;8.768;2022-11-20T09:18:29;10.00;68.70
38265;DHT22;24062;47.480;8.768;2022-11-20T09:22:30;10.20;69.20
38265;DHT22;24062;47.480;8.768;2022-11-20T09:26:38;11.10;70.60
38265;DHT22;24062;47.480;8.768;2022-11-20T09:30:53;11.70;68.50
38265;DHT22;24062;47.480;8.768;2022-11-20T09:34:55;11.50;67.30
38265;DHT22;24062;47.480;8.768;2022-11-20T09:38:55;11.60;68.00
38265;DHT22;24062;47.480;8.768;2022-11-20T09:43:05;11.50;67.40
38265;DHT22;24062;47.480;8.768;2022-11-20T09:47:25;11.40;66.90
38265;DHT22;24062;47.480;8.768;2022-11-20T09:51:34;11.20;66.70
38265;DHT22;24062;47.480;8.768;2022-11-20T09:55:38;11.20;66.80
38265;DHT22;24062;47.480;8.768;2022-11-20T09:59:46;11.10;66.00
38265;DHT22;24062;47.480;8.768;2022-11-20T10:04:04;10.90;65.30
38265;DHT22;24062;47.480;8.768;2022-11-20T10:08:07;10.90;65.00
38265;DHT22;24062;47.480;8.768;2022-11-20T10:12:13;11.10;65.70
38265;DHT22;24062;47.480;8.768;2022-11-20T10:16:26;12.00;67.60
38265;DHT22;24062;47.480;8.768;2022-11-20T10:20:46;13.80;65.70
38265;DHT22;24062;47.480;8.768;2022-11-20T10:24:50;13.40;63.80
38265;DHT22;24062;47.480;8.768;2022-11-20T10:28:56;13.00;64.30
38265;DHT22;24062;47.480;8.768;2022-11-20T10:33:13;12.50;63.60
38265;DHT22;24062;47.480;8.768;2022-11-20T10:37:31;12.50;65.20
38265;DHT22;24062;47.480;8.768;2022-11-20T10:41:37;12.70;65.20
38265;DHT22;24062;47.480;8.768;2022-11-20T10:45:49;13.00;65.60
38265;DHT22;24062;47.480;8.768;2022-11-20T10:50:01;13.70;65.60
38265;DHT22;24062;47.480;8.768;2022-11-20T10:54:19;13.80;64.40
38265;DHT22;24062;47.480;8.768;2022-11-20T10:58:26;13.50;62.40
38265;DHT22;24062;47.480;8.768;2022-11-20T11:02:31;13.20;62.90
38265;DHT22;24062;47.480;8.768;2022-11-20T11:06:40;13.10;62.70
38265;DHT22;24062;47.480;8.768;2022-11-20T11:10:59;12.90;61.60
38265;DHT22;24062;47.480;8.768;2022-11-20T11:15:04;12.90;62.50
38265;DHT22;24062;47.480;8.768;2022-11-20T11:19:06;13.20;62.30
38265;DHT22;24062;47.480;8.768;2022-11-20T11:23:22;13.40;62.80
38265;DHT22;24062;47.480;8.768;2022-11-20T11:27:45;13.70;62.70
38265;DHT22;24062;47.480;8.768;2022-11-20T11:31:46;13.70;61.40
38265;DHT22;24062;47.480;8.768;2022-11-20T11:35:47;13.70;61.10
38265;DHT22;24062;47.480;8.768;2022-11-20T11:39:56;13.50;60.60
38265;DHT22;24062;47.480;8.768;2022-11-20T11:44:14;13.30;60.20
38265;DHT22;24062;47.480;8.768;2022-11-20T11:48:34;13.00;59.70
38265;DHT22;24062;47.480;8.768;2022-11-20T11:52:35;13.20;61.10
38265;DHT22;24062;47.480;8.768;2022-11-20T11:56:48;12.90;59.10
38265;DHT22;24062;47.480;8.768;2022-11-20T12:01:07;12.50;59.00
38265;DHT22;24062;47.480;8.768;2022-11-20T12:05:14;12.40;59.30
38265;DHT22;24062;47.480;8.768;2022-11-20T12:09:17;12.50;59.80
38265;DHT22;24062;47.480;8.768;2022-11-20T12:13:32;13.40;62.20
38265;DHT22;24062;47.480;8.768;2022-11-20T12:17:50;14.20;60.60
38265;DHT22;24062;47.480;8.768;2022-11-20T12:21:54;15.20;62.40
38265;DHT22;24062;47.480;8.768;2022-11-20T12:26:00;16.00;62.00
38265;DHT22;24062;47.480;8.768;2022-11-20T12:30:08;16.60;60.10
38265;DHT22;24062;47.480;8.768;2022-11-20T12:34:30;16.50;58.80
38265;DHT22;24062;47.480;8.768;2022-11-20T12:38:38;16.20;57.80
38265;DHT22;24062;47.480;8.768;2022-11-20T12:42:50;15.80;56.50
38265;DHT22;24062;47.480;8.768;2022-11-20T12:47:17;15.40;55.90
38265;DHT22;24062;47.480;8.768;2022-11-20T12:51:45;15.50;56.90
38265;DHT22;24062;47.480;8.768;2022-11-20T12:55:49;15.80;57.50
38265;DHT22;24062;47.480;8.768;2022-11-20T12:59:58;16.20;57.60
38265;DHT22;24062;47.480;8.768;2022-11-20T13:04:10;15.90;56.00
38265;DHT22;24062;47.480;8.768;2022-11-20T13:08:29;16.00;57.30
38265;DHT22;24062;47.480;8.768;2022-11-20T13:12:33;15.40;54.20
38265;DHT22;24062;47.480;8.768;2022-11-20T13:16:36;14.50;53.50
38265;DHT22;24062;47.480;8.768;2022-11-20T13:20:48;13.90;52.90
38265;DHT22;24062;47.480;8.768;2022-11-20T13:25:08;13.40;52.90
38265;DHT22;24062;47.480;8.768;2022-11-20T13:29:11;13.40;54.10
38265;DHT22;24062;47.480;8.768;2022-11-20T13:33:21;14.80;60.00
38265;DHT22;24062;47.480;8.768;2022-11-20T13:37:30;16.50;58.50
38265;DHT22;24062;47.480;8.768;2022-11-20T13:41:53;15.60;53.30
38265;DHT22;24062;47.480;8.768;2022-11-20T13:45:56;14.30;52.10
38265;DHT22;24062;47.480;8.768;2022-11-20T13:49:57;13.70;52.60
38265;DHT22;24062;47.480;8.768;2022-11-20T13:54:10;13.50;53.30
38265;DHT22;24062;47.480;8.768;2022-11-20T13:58:31;13.50;52.40
38265;DHT22;24062;47.480;8.768;2022-11-20T14:02:38;13.30;52.30
38265;DHT22;24062;47.480;8.768;2022-11-20T14:06:41;13.10;52.10
38265;DHT22;24062;47.480;8.768;2022-11-20T14:10:49;13.20;52.70
38265;DHT22;24062;47.480;8.768;2022-11-20T14:15:05;13.30;52.50
38265;DHT22;24062;47.480;8.768;2022-11-20T14:19:28;13.50;52.10
38265;DHT22;24062;47.480;8.768;2022-11-20T14:23:30;13.10;51.70
38265;DHT22;24062;47.480;8.768;2022-11-20T14:27:38;13.60;51.90
38265;DHT22;24062;47.480;8.768;2022-11-20T14:31:54;13.80;51.30
38265;DHT22;24062;47.480;8.768;2022-11-20T14:35:57;13.20;50.80
38265;DHT22;24062;47.480;8.768;2022-11-20T14:39:58;14.00;52.80
38265;DHT22;24062;47.480;8.768;2022-11-20T14:44:10;15.30;53.40
38265;DHT22;24062;47.480;8.768;2022-11-20T14:48:28;14.70;50.60
38265;DHT22;24062;47.480;8.768;2022-11-20T14:52:30;13.80;50.40
38265;DHT22;24062;47.480;8.768;2022-11-20T14:56:31;13.30;50.60
38265;DHT22;24062;47.480;8.768;2022-11-20T15:00:38;12.90;50.40
38265;DHT22;24062;47.480;8.768;2022-11-20T15:04:56;12.60;50.40
38265;DHT22;24062;47.480;8.768;2022-11-20T15:08:59;12.30;50.20
38265;DHT22;24062;47.480;8.768;2022-11-20T15:13:00;12.00;49.80
38265;DHT22;24062;47.480;8.768;2022-11-20T15:17:08;11.60;49.60
38265;DHT22;24062;47.480;8.768;2022-11-20T15:21:24;11.40;49.80
38265;DHT22;24062;47.480;8.768;2022-11-20T15:25:27;11.20;49.70
38265;DHT22;24062;47.480;8.768;2022-11-20T15:29:29;11.10;49.50
38265;DHT22;24062;47.480;8.768;2022-11-20T15:33:37;10.80;49.30
38265;DHT22;24062;47.480;8.768;2022-11-20T15:37:52;10.60;49.40
38265;DHT22;24062;47.480;8.768;2022-11-20T15:41:54;10.50;49.30
38265;DHT22;24062;47.480;8.768;2022-11-20T15:45:55;10.30;49.40
38265;DHT22;24062;47.480;8.768;2022-11-20T15:50:05;10.10;49.30
38265;DHT22;24062;47.480;8.768;2022-11-20T15:54:24;10.00;49.40
38265;DHT22;24062;47.480;8.768;2022-11-20T15:58:25;9.90;50.20
38265;DHT22;24062;47.480;8.768;2022-11-20T16:02:26;9.60;49.90
38265;DHT22;24062;47.480;8.768;2022-11-20T16:06:37;9.40;50.00
38265;DHT22;24062;47.480;8.768;2022-11-20T16:10:52;9.30;50.10
38265;DHT22;24062;47.480;8.768;2022-11-20T16:14:54;9.10;50.20
38265;DHT22;24062;47.480;8.768;2022-11-20T16:19:12;9.00;50.10
38265;DHT22;24062;47.480;8.768;2022-11-20T16:23:20;8.90;50.40
38265;DHT22;24062;47.480;8.768;2022-11-20T16:27:35;8.70;50.10
38265;DHT22;24062;47.480;8.768;2022-11-20T16:31:37;8.60;50.30
38265;DHT22;24062;47.480;8.768;2022-11-20T16:35:37;8.60;50.40
38265;DHT22;24062;47.480;8.768;2022-11-20T16:39:45;8.40;50.20
38265;DHT22;24062;47.480;8.768;2022-11-20T16:44:01;8.20;50.20
38265;DHT22;24062;47.480;8.768;2022-11-20T16:48:05;8.10;50.30
38265;DHT22;24062;47.480;8.768;2022-11-20T16:52:06;8.10;50.80
38265;DHT22;24062;47.480;8.768;2022-11-20T16:56:15;8.20;51.10
38265;DHT22;24062;47.480;8.768;2022-11-20T17:00:30;8.20;51.20
38265;DHT22;24062;47.480;8.768;2022-11-20T17:04:34;8.10;51.00
38265;DHT22;24062;47.480;8.768;2022-11-20T17:08:34;8.20;51.30
38265;DHT22;24062;47.480;8.768;2022-11-20T17:12:42;8.10;51.60
38265;DHT22;24062;47.480;8.768;2022-11-20T17:16:58;8.10;51.60
38265;DHT22;24062;47.480;8.768;2022-11-20T17:21:00;8.10;51.70
38265;DHT22;24062;47.480;8.768;2022-11-20T17:25:02;8.10;51.70
38265;DHT22;24062;47.480;8.768;2022-11-20T17:29:14;8.00;51.70
38265;DHT22;24062;47.480;8.768;2022-11-20T17:33:29;7.90;51.70
38265;DHT22;24062;47.480;8.768;2022-11-20T17:37:31;7.70;51.60
38265;DHT22;24062;47.480;8.768;2022-11-20T17:41:31;7.60;51.70
38265;DHT22;24062;47.480;8.768;2022-11-20T17:45:39;7.50;51.80
38265;DHT22;24062;47.480;8.768;2022-11-20T17:49:55;7.40;52.20
38265;DHT22;24062;47.480;8.768;2022-11-20T17:53:57;7.50;52.40
38265;DHT22;24062;47.480;8.768;2022-11-20T17:57:58;7.50;52.40
38265;DHT22;24062;47.480;8.768;2022-11-20T18:02:08;7.50;52.60
38265;DHT22;24062;47.480;8.768;2022-11-20T18:07:37;7.70;52.90
38265;DHT22;24062;47.480;8.768;2022-11-20T18:11:40;7.80;53.20
38265;DHT22;24062;47.480;8.768;2022-11-20T18:15:42;7.90;53.20
38265;DHT22;24062;47.480;8.768;2022-11-20T18:19:50;7.90;53.30
38265;DHT22;24062;47.480;8.768;2022-11-20T18:24:06;8.00;53.50
38265;DHT22;24062;47.480;8.768;2022-11-20T18:28:08;8.10;53.70
38265;DHT22;24062;47.480;8.768;2022-11-20T18:32:08;8.20;53.70
38265;DHT22;24062;47.480;8.768;2022-11-20T18:36:16;8.40;53.90
38265;DHT22;24062;47.480;8.768;2022-11-20T18:40:33;8.50;54.10
38265;DHT22;24062;47.480;8.768;2022-11-20T18:44:34;8.60;54.30
38265;DHT22;24062;47.480;8.768;2022-11-20T18:48:49;8.80;54.40
38265;DHT22;24062;47.480;8.768;2022-11-20T18:52:59;8.80;54.40
38265;DHT22;24062;47.480;8.768;2022-11-20T18:57:15;8.80;54.50
38265;DHT22;24062;47.480;8.768;2022-11-20T19:01:17;8.90;54.70
38265;DHT22;24062;47.480;8.768;2022-11-20T19:05:17;9.00;54.80
38265;DHT22;24062;47.480;8.768;2022-11-20T19:09:25;9.00;54.80
38265;DHT22;24062;47.480;8.768;2022-11-20T19:13:40;9.10;55.10
38265;DHT22;24062;47.480;8.768;2022-11-20T19:17:42;9.20;55.20
38265;DHT22;24062;47.480;8.768;2022-11-20T19:21:42;9.10;55.50
38265;DHT22;24062;47.480;8.768;2022-11-20T19:25:50;8.80;56.30
38265;DHT22;24062;47.480;8.768;2022-11-20T19:30:06;8.50;56.70
38265;DHT22;24062;47.480;8.768;2022-11-20T19:34:09;8.30;57.20
38265;DHT22;24062;47.480;8.768;2022-11-20T19:38:12;8.10;57.10
38265;DHT22;24062;47.480;8.768;2022-11-20T19:42:20;8.10;57.40
38265;DHT22;24062;47.480;8.768;2022-11-20T19:46:36;8.00;57.70
38265;DHT22;24062;47.480;8.768;2022-11-20T19:50:38;7.90;57.60
38265;DHT22;24062;47.480;8.768;2022-11-20T19:54:38;7.90;58.00
38265;DHT22;24062;47.480;8.768;2022-11-20T19:58:46;7.80;58.80
38265;DHT22;24062;47.480;8.768;2022-11-20T20:03:01;7.50;58.80
38265;DHT22;24062;47.480;8.768;2022-11-20T20:07:03;7.30;58.90
38265;DHT22;24062;47.480;8.768;2022-11-20T20:11:10;7.30;59.50
38265;DHT22;24062;47.480;8.768;2022-11-20T20:15:22;7.20;60.50
38265;DHT22;24062;47.480;8.768;2022-11-20T20:19:37;7.10;60.40
38265;DHT22;24062;47.480;8.768;2022-11-20T20:23:39;6.90;61.10
38265;DHT22;24062;47.480;8.768;2022-11-20T20:27:40;6.70;61.80
38265;DHT22;24062;47.480;8.768;2022-11-20T20:31:48;6.50;63.10
38265;DHT22;24062;47.480;8.768;2022-11-20T20:36:03;6.40;63.30
38265;DHT22;24062;47.480;8.768;2022-11-20T20:40:05;6.30;64.00
38265;DHT22;24062;47.480;8.768;2022-11-20T20:44:06;6.30;64.30
38265;DHT22;24062;47.480;8.768;2022-11-20T20:48:31;6.20;64.10
38265;DHT22;24062;47.480;8.768;2022-11-20T20:52:46;6.30;64.70
38265;DHT22;24062;47.480;8.768;2022-11-20T20:56:51;6.30;64.80
38265;DHT22;24062;47.480;8.768;2022-11-20T21:00:53;6.30;65.00
38265;DHT22;24062;47.480;8.768;2022-11-20T21:05:01;6.30;65.00
38265;DHT22;24062;47.480;8.768;2022-11-20T21:09:16;6.30;65.30
38265;DHT22;24062;47.480;8.768;2022-11-20T21:13:19;6.40;66.00
38265;DHT22;24062;47.480;8.768;2022-11-20T21:17:20;6.40;65.90
38265;DHT22;24062;47.480;8.768;2022-11-20T21:21:27;6.30;66.40
38265;DHT22;24062;47.480;8.768;2022-11-20T21:26:00;6.40;66.70
38265;DHT22;24062;47.480;8.768;2022-11-20T21:30:02;6.40;66.80
38265;DHT22;24062;47.480;8.768;2022-11-20T21:34:03;6.40;66.70
38265;DHT22;24062;47.480;8.768;2022-11-20T21:36:30;6.40;66.90
38265;DHT22;24062;47.480;8.768;2022-11-20T21:38:58;6.30;67.40
38265;DHT22;24062;47.480;8.768;2022-11-20T21:41:28;6.40;67.70
38265;DHT22;24062;47.480;8.768;2022-11-20T21:43:55;6.50;68.10
38265;DHT22;24062;47.480;8.768;2022-11-20T21:46:24;6.40;68.30
38265;DHT22;24062;47.480;8.768;2022-11-20T21:48:51;6.50;68.90
38265;DHT22;24062;47.480;8.768;2022-11-20T21:51:20;6.40;69.00
38265;DHT22;24062;47.480;8.768;2022-11-20T21:53:48;6.50;69.30
38265;DHT22;24062;47.480;8.768;2022-11-20T21:56:17;6.50;69.30
38265;DHT22;24062;47.480;8.768;2022-11-20T21:58:45;6.50;69.70
38265;DHT22;24062;47.480;8.768;2022-11-20T22:01:13;6.60;69.90
38265;DHT22;24062;47.480;8.768;2022-11-20T22:03:45;6.60;70.10
38265;DHT22;24062;47.480;8.768;2022-11-20T22:06:12;6.60;70.30
38265;DHT22;24062;47.480;8.768;2022-11-20T22:08:39;6.60;70.10
38265;DHT22;24062;47.480;8.768;2022-11-20T22:11:07;6.60;70.50
38265;DHT22;24062;47.480;8.768;2022-11-20T22:13:35;6.60;70.60
38265;DHT22;24062;47.480;8.768;2022-11-20T22:16:20;6.70;70.60
38265;DHT22;24062;47.480;8.768;2022-11-20T22:18:49;6.70;70.70
38265;DHT22;24062;47.480;8.768;2022-11-20T22:21:18;6.70;70.70
38265;DHT22;24062;47.480;8.768;2022-11-20T22:23:45;6.80;71.00
38265;DHT22;24062;47.480;8.768;2022-11-20T22:26:13;6.80;70.90
38265;DHT22;24062;47.480;8.768;2022-11-20T22:28:41;6.80;70.80
38265;DHT22;24062;47.480;8.768;2022-11-20T22:31:09;6.80;71.10
38265;DHT22;24062;47.480;8.768;2022-11-20T22:33:37;6.80;71.20
38265;DHT22;24062;47.480;8.768;2022-11-20T22:36:07;6.80;71.60
38265;DHT22;24062;47.480;8.768;2022-11-20T22:38:34;6.80;71.80
38265;DHT22;24062;47.480;8.768;2022-11-20T22:41:02;6.80;71.80
38265;DHT22;24062;47.480;8.768;2022-11-20T22:43:29;6.80;71.90
38265;DHT22;24062;47.480;8.768;2022-11-20T22:46:02;6.80;72.10
38265;DHT22;24062;47.480;8.768;2022-11-20T22:48:29;6.70;71.80
38265;DHT22;24062;47.480;8.768;2022-11-20T22:50:59;6.70;72.10
38265;DHT22;24062;47.480;8.768;2022-11-20T22:53:28;6.60;72.30
38265;DHT22;24062;47.480;8.768;2022-11-20T22:55:55;6.60;72.20
38265;DHT22;24062;47.480;8.768;2022-11-20T22:58:22;6.50;72.10
38265;DHT22;24062;47.480;8.768;2022-11-20T23:00:48;6.40;72.20
38265;DHT22;24062;47.480;8.768;2022-11-20T23:03:15;6.30;72.20
38265;DHT22;24062;47.480;8.768;2022-11-20T23:05:42;6.30;72.30
38265;DHT22;24062;47.480;8.768;2022-11-20T23:08:09;6.20;72.70
38265;DHT22;24062;47.480;8.768;2022-11-20T23:10:37;6.20;72.80
38265;DHT22;24062;47.480;8.768;2022-11-20T23:13:04;6.20;72.80
38265;DHT22;24062;47.480;8.768;2022-11-20T23:15:32;6.20;73.20
38265;DHT22;24062;47.480;8.768;2022-11-20T23:17:59;6.20;73.00
38265;DHT22;24062;47.480;8.768;2022-11-20T23:20:26;6.20;73.10
38265;DHT22;24062;47.480;8.768;2022-11-20T23:22:53;6.20;73.00
38265;DHT22;24062;47.480;8.768;2022-11-20T23:25:20;6.20;73.10
38265;DHT22;24062;47.480;8.768;2022-11-20T23:27:48;6.10;73.10
38265;DHT22;24062;47.480;8.768;2022-11-20T23:30:15;6.20;73.30
38265;DHT22;24062;47.480;8.768;2022-11-20T23:32:42;6.20;73.60
38265;DHT22;24062;47.480;8.768;2022-11-20T23:35:09;6.20;73.50
38265;DHT22;24062;47.480;8.768;2022-11-20T23:37:36;6.20;73.30
38265;DHT22;24062;47.480;8.768;2022-11-20T23:40:03;6.30;73.90
38265;DHT22;24062;47.480;8.768;2022-11-20T23:42:30;6.40;74.10
38265;DHT22;24062;47.480;8.768;2022-11-20T23:44:59;6.60;74.10
38265;DHT22;24062;47.480;8.768;2022-11-20T23:47:25;6.50;73.10
38265;DHT22;24062;47.480;8.768;2022-11-20T23:51:44;6.50;73.00
38265;DHT22;24062;47.480;8.768;2022-11-20T23:55:49;6.40;73.10
38265;DHT22;24062;47.480;8.768;2022-11-20T23:59:59;6.40;73.20
